createdAt,value
2017-10-03T00:00:31.892Z,957.1
2017-10-03T00:01:31.915Z,957.04
2017-10-03T00:02:31.935Z,957.14
2017-10-03T00:03:31.959Z,957.03
2017-10-03T00:04:31.979Z,957.02
2017-10-03T00:05:31.999Z,957.01
2017-10-03T00:06:32.021Z,956.98
2017-10-03T00:07:32.043Z,957.03
2017-10-03T00:08:32.067Z,957.06
2017-10-03T00:09:32.086Z,957
2017-10-03T00:10:32.114Z,956.99
2017-10-03T00:11:32.132Z,957.05
2017-10-03T00:12:32.156Z,957
2017-10-03T00:13:32.175Z,957.04
2017-10-03T00:14:32.199Z,957.01
2017-10-03T00:15:32.221Z,957.02
2017-10-03T00:16:32.291Z,956.97
2017-10-03T00:17:32.263Z,957.01
2017-10-03T00:18:32.285Z,957.01
2017-10-03T00:19:32.306Z,956.98
2017-10-03T00:20:32.335Z,956.94
2017-10-03T00:21:32.355Z,956.96
2017-10-03T00:22:32.372Z,956.97
2017-10-03T00:23:32.393Z,956.91
2017-10-03T00:24:32.414Z,956.96
2017-10-03T00:25:32.442Z,956.96
2017-10-03T00:26:32.463Z,956.97
2017-10-03T00:27:32.480Z,956.9
2017-10-03T00:28:32.506Z,956.95
2017-10-03T00:29:32.525Z,956.99
2017-10-03T00:30:32.545Z,956.97
2017-10-03T00:31:32.623Z,956.99
2017-10-03T00:32:32.589Z,956.95
2017-10-03T00:33:32.611Z,956.93
2017-10-03T00:34:32.632Z,956.91
2017-10-03T00:35:32.654Z,956.93
2017-10-03T00:36:32.677Z,956.89
2017-10-03T00:37:32.699Z,956.86
2017-10-03T00:38:32.722Z,956.84
2017-10-03T00:39:32.742Z,956.84
2017-10-03T00:40:32.762Z,956.82
2017-10-03T00:41:32.785Z,956.8
2017-10-03T00:42:32.804Z,956.83
2017-10-03T00:43:32.828Z,956.8
2017-10-03T00:44:32.855Z,956.77
2017-10-03T00:45:32.870Z,956.76
2017-10-03T00:46:32.892Z,956.8
2017-10-03T00:47:32.914Z,956.76
2017-10-03T00:48:32.934Z,956.73
2017-10-03T00:49:32.956Z,956.7
2017-10-03T00:50:33.031Z,956.68
2017-10-03T00:51:32.998Z,956.66
2017-10-03T00:52:33.020Z,956.64
2017-10-03T00:53:33.044Z,956.63
2017-10-03T00:54:33.064Z,956.6
2017-10-03T00:55:33.085Z,956.56
2017-10-03T00:56:33.105Z,956.54
2017-10-03T00:57:33.128Z,956.51
2017-10-03T00:58:33.148Z,956.51
2017-10-03T00:59:33.175Z,956.47
2017-10-03T01:00:33.191Z,956.55
2017-10-03T01:01:33.218Z,956.52
2017-10-03T01:02:33.247Z,956.52
2017-10-03T01:03:33.280Z,956.52
2017-10-03T01:04:33.277Z,956.46
2017-10-03T01:05:33.298Z,956.48
2017-10-03T01:06:33.327Z,956.44
2017-10-03T01:07:33.442Z,956.41
2017-10-03T01:08:33.362Z,956.4
2017-10-03T01:09:33.384Z,956.35
2017-10-03T01:10:33.406Z,956.39
2017-10-03T01:11:33.426Z,956.38
2017-10-03T01:12:33.460Z,956.3
2017-10-03T01:13:33.471Z,956.27
2017-10-03T01:14:33.491Z,956.33
2017-10-03T01:15:33.514Z,956.27
2017-10-03T01:16:33.534Z,956.33
2017-10-03T01:17:33.555Z,956.28
2017-10-03T01:18:33.579Z,956.27
2017-10-03T01:19:33.607Z,956.28
2017-10-03T01:20:33.621Z,956.21
2017-10-03T01:21:33.644Z,956.19
2017-10-03T01:22:33.713Z,956.21
2017-10-03T01:23:33.685Z,956.21
2017-10-03T01:24:33.707Z,956.18
2017-10-03T01:25:33.728Z,956.24
2017-10-03T01:26:33.749Z,956.18
2017-10-03T01:27:33.772Z,956.2
2017-10-03T01:28:33.795Z,956.16
2017-10-03T01:29:33.828Z,956.27
2017-10-03T01:30:33.837Z,956.23
2017-10-03T01:31:34.136Z,956.18
2017-10-03T01:32:33.904Z,956.22
2017-10-03T01:33:33.902Z,956.2
2017-10-03T01:34:33.922Z,956.3
2017-10-03T01:35:33.944Z,956.24
2017-10-03T01:36:33.967Z,956.25
2017-10-03T01:37:34.047Z,956.25
2017-10-03T01:38:34.011Z,956.21
2017-10-03T01:39:34.031Z,956.23
2017-10-03T01:40:34.059Z,956.21
2017-10-03T01:41:34.073Z,956.19
2017-10-03T01:42:34.095Z,956.2
2017-10-03T01:43:34.118Z,956.18
2017-10-03T01:44:34.139Z,956.16
2017-10-03T01:45:34.163Z,956.15
2017-10-03T01:46:34.183Z,956.12
2017-10-03T01:47:34.205Z,956.18
2017-10-03T01:48:34.225Z,956.12
2017-10-03T01:49:34.248Z,956.2
2017-10-03T01:50:34.270Z,956.14
2017-10-03T01:51:34.291Z,956.13
2017-10-03T01:52:34.331Z,956.11
2017-10-03T01:53:34.336Z,956.14
2017-10-03T01:54:34.406Z,956.12
2017-10-03T01:55:34.376Z,956.08
2017-10-03T01:56:34.398Z,956.07
2017-10-03T01:57:34.425Z,956.02
2017-10-03T01:58:34.447Z,955.97
2017-10-03T01:59:34.464Z,956
2017-10-03T02:00:34.487Z,956
2017-10-03T02:01:34.508Z,955.98
2017-10-03T02:02:34.532Z,955.97
2017-10-03T02:03:34.551Z,956
2017-10-03T02:04:34.572Z,955.93
2017-10-03T02:05:34.598Z,955.97
2017-10-03T02:06:34.616Z,955.91
2017-10-03T02:07:34.638Z,955.91
2017-10-03T02:08:34.664Z,955.93
2017-10-03T02:09:34.680Z,955.89
2017-10-03T02:10:34.702Z,955.91
2017-10-03T02:11:34.729Z,955.87
2017-10-03T02:12:34.749Z,955.85
2017-10-03T02:13:34.767Z,955.83
2017-10-03T02:14:34.793Z,955.79
2017-10-03T02:15:34.835Z,955.8
2017-10-03T02:16:34.832Z,955.79
2017-10-03T02:17:34.858Z,955.8
2017-10-03T02:18:34.875Z,955.8
2017-10-03T02:19:34.897Z,955.75
2017-10-03T02:20:34.917Z,955.71
2017-10-03T02:21:34.940Z,955.7
2017-10-03T02:22:34.969Z,955.69
2017-10-03T02:23:34.984Z,955.69
2017-10-03T02:24:35.004Z,955.66
2017-10-03T02:25:35.034Z,955.62
2017-10-03T02:26:35.049Z,955.58
2017-10-03T02:27:36.122Z,955.57
2017-10-03T02:28:35.092Z,955.56
2017-10-03T02:29:35.115Z,955.55
2017-10-03T02:30:35.139Z,955.51
2017-10-03T02:31:35.157Z,955.49
2017-10-03T02:32:35.178Z,955.42
2017-10-03T02:33:35.200Z,955.44
2017-10-03T02:34:35.228Z,955.41
2017-10-03T02:35:35.245Z,955.39
2017-10-03T02:36:35.268Z,955.37
2017-10-03T02:37:35.293Z,955.37
2017-10-03T02:38:35.310Z,955.34
2017-10-03T02:39:35.336Z,955.3
2017-10-03T02:40:35.356Z,955.26
2017-10-03T02:41:35.376Z,955.22
2017-10-03T02:42:35.397Z,955.2
2017-10-03T02:43:35.419Z,955.18
2017-10-03T02:44:35.442Z,955.15
2017-10-03T02:45:35.463Z,955.11
2017-10-03T02:46:35.484Z,955.04
2017-10-03T02:47:35.505Z,955.03
2017-10-03T02:48:35.530Z,954.99
2017-10-03T02:49:35.559Z,954.99
2017-10-03T02:50:35.577Z,954.94
2017-10-03T02:51:35.594Z,954.91
2017-10-03T02:52:35.617Z,954.88
2017-10-03T02:53:35.638Z,954.87
2017-10-03T02:54:35.661Z,954.82
2017-10-03T02:55:35.689Z,954.79
2017-10-03T02:56:35.706Z,954.81
2017-10-03T02:57:35.728Z,954.78
2017-10-03T02:58:35.799Z,954.77
2017-10-03T02:59:35.772Z,954.77
2017-10-03T03:00:35.793Z,954.74
2017-10-03T03:01:35.817Z,954.72
2017-10-03T03:02:35.840Z,954.67
2017-10-03T03:03:35.860Z,954.63
2017-10-03T03:04:35.887Z,954.59
2017-10-03T03:05:35.905Z,954.59
2017-10-03T03:06:35.928Z,954.58
2017-10-03T03:07:35.955Z,954.52
2017-10-03T03:08:35.976Z,954.6
2017-10-03T03:09:35.993Z,954.57
2017-10-03T03:10:36.016Z,954.56
2017-10-03T03:11:36.039Z,954.58
2017-10-03T03:12:36.061Z,954.53
2017-10-03T03:13:36.134Z,954.56
2017-10-03T03:14:36.115Z,954.54
2017-10-03T03:15:36.129Z,954.53
2017-10-03T03:16:36.153Z,954.48
2017-10-03T03:17:36.173Z,954.5
2017-10-03T03:18:36.199Z,954.48
2017-10-03T03:19:36.221Z,954.48
2017-10-03T03:20:36.243Z,954.44
2017-10-03T03:21:36.266Z,954.42
2017-10-03T03:22:36.295Z,954.39
2017-10-03T03:23:36.308Z,954.34
2017-10-03T03:24:36.341Z,954.35
2017-10-03T03:25:36.354Z,954.35
2017-10-03T03:26:36.374Z,954.3
2017-10-03T03:27:36.400Z,954.24
2017-10-03T03:28:36.471Z,954.24
2017-10-03T03:29:36.442Z,954.18
2017-10-03T03:30:36.475Z,954.18
2017-10-03T03:31:36.487Z,954.19
2017-10-03T03:32:36.509Z,954.17
2017-10-03T03:33:36.531Z,954.18
2017-10-03T03:34:36.560Z,954.11
2017-10-03T03:35:36.578Z,954.02
2017-10-03T03:36:36.600Z,954.05
2017-10-03T03:37:36.621Z,953.94
2017-10-03T03:38:36.645Z,953.94
2017-10-03T03:39:36.671Z,953.92
2017-10-03T03:40:36.688Z,953.91
2017-10-03T03:41:36.711Z,953.91
2017-10-03T03:42:36.733Z,953.89
2017-10-03T03:43:36.755Z,953.9
2017-10-03T03:44:36.779Z,953.85
2017-10-03T03:45:36.801Z,953.82
2017-10-03T03:46:36.822Z,953.77
2017-10-03T03:47:36.944Z,953.72
2017-10-03T03:48:36.866Z,953.76
2017-10-03T03:49:36.890Z,953.72
2017-10-03T03:50:36.912Z,953.69
2017-10-03T03:51:36.932Z,953.67
2017-10-03T03:52:36.955Z,953.71
2017-10-03T03:53:36.981Z,953.67
2017-10-03T03:54:37.001Z,953.61
2017-10-03T03:55:37.026Z,953.63
2017-10-03T03:56:37.044Z,953.57
2017-10-03T03:57:37.068Z,953.6
2017-10-03T03:58:37.090Z,953.59
2017-10-03T03:59:37.111Z,953.53
2017-10-03T04:00:37.133Z,953.53
2017-10-03T04:01:37.159Z,953.48
2017-10-03T04:02:37.230Z,953.44
2017-10-03T04:03:37.201Z,953.43
2017-10-03T04:04:37.223Z,953.36
2017-10-03T04:05:37.257Z,953.36
2017-10-03T04:06:37.267Z,953.34
2017-10-03T04:07:37.289Z,953.31
2017-10-03T04:08:37.317Z,953.33
2017-10-03T04:09:37.336Z,953.32
2017-10-03T04:10:37.359Z,953.33
2017-10-03T04:11:37.379Z,953.3
2017-10-03T04:12:37.401Z,953.33
2017-10-03T04:13:37.427Z,953.27
2017-10-03T04:14:37.445Z,953.26
2017-10-03T04:15:37.468Z,953.27
2017-10-03T04:16:37.495Z,953.22
2017-10-03T04:17:37.514Z,953.21
2017-10-03T04:18:37.584Z,953.14
2017-10-03T04:19:37.558Z,953.17
2017-10-03T04:20:37.580Z,953.14
2017-10-03T04:21:37.600Z,953.08
2017-10-03T04:22:37.624Z,953.08
2017-10-03T04:23:37.644Z,953.06
2017-10-03T04:24:37.666Z,953.06
2017-10-03T04:25:37.689Z,953
2017-10-03T04:26:37.710Z,953
2017-10-03T04:27:37.739Z,952.98
2017-10-03T04:28:37.758Z,952.99
2017-10-03T04:29:37.776Z,952.94
2017-10-03T04:30:37.802Z,952.93
2017-10-03T04:31:37.823Z,952.85
2017-10-03T04:32:37.842Z,952.88
2017-10-03T04:33:37.916Z,952.86
2017-10-03T04:34:37.886Z,952.8
2017-10-03T04:35:37.908Z,952.76
2017-10-03T04:36:37.933Z,952.79
2017-10-03T04:37:37.953Z,952.78
2017-10-03T04:38:37.976Z,952.72
2017-10-03T04:39:37.998Z,952.76
2017-10-03T04:40:38.017Z,952.75
2017-10-03T04:41:38.043Z,952.78
2017-10-03T04:42:38.063Z,952.75
2017-10-03T04:43:38.088Z,952.73
2017-10-03T04:44:38.107Z,952.69
2017-10-03T04:45:38.130Z,952.66
2017-10-03T04:46:38.154Z,952.66
2017-10-03T04:47:38.172Z,952.63
2017-10-03T04:48:38.195Z,952.57
2017-10-03T04:49:38.217Z,952.58
2017-10-03T04:50:38.297Z,952.54
2017-10-03T04:51:38.262Z,952.53
2017-10-03T04:52:38.302Z,952.49
2017-10-03T04:53:38.332Z,952.49
2017-10-03T04:54:38.335Z,952.46
2017-10-03T04:55:38.357Z,952.45
2017-10-03T04:56:38.375Z,952.45
2017-10-03T04:57:38.394Z,952.41
2017-10-03T04:58:38.416Z,952.41
2017-10-03T04:59:38.440Z,952.37
2017-10-03T05:00:38.464Z,952.35
2017-10-03T05:01:38.485Z,952.38
2017-10-03T05:02:38.510Z,952.35
2017-10-03T05:03:38.527Z,952.35
2017-10-03T05:04:38.570Z,952.38
2017-10-03T05:05:38.577Z,952.3
2017-10-03T05:06:38.645Z,952.32
2017-10-03T05:07:38.619Z,952.24
2017-10-03T05:08:38.640Z,952.23
2017-10-03T05:09:38.660Z,952.24
2017-10-03T05:10:38.686Z,952.2
2017-10-03T05:11:38.709Z,952.22
2017-10-03T05:12:38.730Z,952.14
2017-10-03T05:13:38.749Z,952.21
2017-10-03T05:14:38.777Z,952.21
2017-10-03T05:15:38.795Z,952.19
2017-10-03T05:16:38.817Z,952.14
2017-10-03T05:17:38.838Z,952.14
2017-10-03T05:18:38.860Z,952.18
2017-10-03T05:19:38.882Z,952.16
2017-10-03T05:20:38.908Z,952.2
2017-10-03T05:21:38.929Z,952.19
2017-10-03T05:22:38.971Z,952.21
2017-10-03T05:23:38.978Z,952.22
2017-10-03T05:24:39.000Z,952.24
2017-10-03T05:25:39.017Z,952.22
2017-10-03T05:26:39.040Z,952.2
2017-10-03T05:27:39.073Z,952.31
2017-10-03T05:28:39.083Z,952.27
2017-10-03T05:29:39.105Z,952.29
2017-10-03T05:30:39.128Z,952.22
2017-10-03T05:31:39.154Z,952.23
2017-10-03T05:32:39.173Z,952.19
2017-10-03T05:33:39.194Z,952.19
2017-10-03T05:34:39.216Z,952.17
2017-10-03T05:35:39.237Z,952.15
2017-10-03T05:36:39.262Z,952.16
2017-10-03T05:37:39.289Z,952.24
2017-10-03T05:38:39.321Z,952.22
2017-10-03T05:39:39.377Z,952.17
2017-10-03T05:40:39.351Z,952.19
2017-10-03T05:41:39.369Z,952.15
2017-10-03T05:42:39.393Z,952.19
2017-10-03T05:43:39.416Z,952.13
2017-10-03T05:44:39.444Z,952.1
2017-10-03T05:45:39.460Z,952.11
2017-10-03T05:46:39.485Z,952.12
2017-10-03T05:47:39.508Z,952.14
2017-10-03T05:48:39.527Z,952.15
2017-10-03T05:49:39.550Z,952.13
2017-10-03T05:50:39.573Z,952.17
2017-10-03T05:51:39.593Z,952.15
2017-10-03T05:52:39.618Z,952.19
2017-10-03T05:53:39.638Z,952.12
2017-10-03T05:54:39.662Z,952.09
2017-10-03T05:55:39.685Z,952.11
2017-10-03T05:56:39.710Z,952.07
2017-10-03T05:57:39.781Z,952.11
2017-10-03T05:58:39.761Z,952.11
2017-10-03T05:59:39.778Z,952.11
2017-10-03T06:00:39.795Z,952.07
2017-10-03T06:01:39.819Z,952.13
2017-10-03T06:02:39.840Z,952.08
2017-10-03T06:03:39.866Z,952.18
2017-10-03T06:04:39.885Z,952.16
2017-10-03T06:05:39.912Z,952.15
2017-10-03T06:06:39.930Z,952.22
2017-10-03T06:07:39.951Z,952.2
2017-10-03T06:08:39.976Z,952.18
2017-10-03T06:09:40.003Z,952.15
2017-10-03T06:10:40.020Z,952.16
2017-10-03T06:11:40.042Z,952.28
2017-10-03T06:12:40.115Z,952.21
2017-10-03T06:13:40.087Z,952.2
2017-10-03T06:14:40.110Z,952.21
2017-10-03T06:15:40.133Z,952.21
2017-10-03T06:16:40.161Z,952.21
2017-10-03T06:17:40.184Z,952.17
2017-10-03T06:18:40.203Z,952.21
2017-10-03T06:19:40.221Z,952.28
2017-10-03T06:20:40.243Z,952.26
2017-10-03T06:21:40.267Z,952.3
2017-10-03T06:22:40.290Z,952.3
2017-10-03T06:23:40.311Z,952.26
2017-10-03T06:24:40.334Z,952.27
2017-10-03T06:25:40.360Z,952.19
2017-10-03T06:26:40.380Z,952.18
2017-10-03T06:27:40.401Z,952.14
2017-10-03T06:28:40.425Z,952.15
2017-10-03T06:29:40.447Z,952.26
2017-10-03T06:30:40.471Z,952.95
2017-10-03T06:31:40.543Z,953.22
2017-10-03T06:32:40.513Z,953.37
2017-10-03T06:33:40.536Z,953.55
2017-10-03T06:34:40.560Z,953.51
2017-10-03T06:35:40.581Z,953.52
2017-10-03T06:36:40.607Z,953.56
2017-10-03T06:37:40.625Z,953.59
2017-10-03T06:38:40.652Z,953.65
2017-10-03T06:39:40.665Z,953.78
2017-10-03T06:40:40.691Z,953.67
2017-10-03T06:41:40.708Z,953.76
2017-10-03T06:42:40.729Z,953.96
2017-10-03T06:43:40.750Z,953.93
2017-10-03T06:44:40.772Z,953.85
2017-10-03T06:45:40.795Z,953.89
2017-10-03T06:46:40.864Z,953.93
2017-10-03T06:47:40.834Z,954
2017-10-03T06:48:40.857Z,953.96
2017-10-03T06:49:40.875Z,953.89
2017-10-03T06:50:40.895Z,953.86
2017-10-03T06:51:40.916Z,953.84
2017-10-03T06:52:40.938Z,953.91
2017-10-03T06:53:40.959Z,953.85
2017-10-03T06:54:40.974Z,953.89
2017-10-03T06:55:40.997Z,953.83
2017-10-03T06:56:41.017Z,953.81
2017-10-03T06:57:41.036Z,953.78
2017-10-03T06:58:41.059Z,953.88
2017-10-03T06:59:41.081Z,953.99
2017-10-03T07:00:41.098Z,954.21
2017-10-03T07:01:41.171Z,954.28
2017-10-03T07:02:41.142Z,954.45
2017-10-03T07:03:41.157Z,954.61
2017-10-03T07:04:41.178Z,954.69
2017-10-03T07:05:41.198Z,954.64
2017-10-03T07:06:41.218Z,954.74
2017-10-03T07:07:41.237Z,954.7
2017-10-03T07:08:41.258Z,954.6
2017-10-03T07:09:41.278Z,954.53
2017-10-03T07:10:41.298Z,954.5
2017-10-03T07:11:41.319Z,954.54
2017-10-03T07:12:41.337Z,954.66
2017-10-03T07:13:41.362Z,954.76
2017-10-03T07:14:41.378Z,954.74
2017-10-03T07:15:41.402Z,954.7
2017-10-03T07:16:41.469Z,954.58
2017-10-03T07:17:41.443Z,954.55
2017-10-03T07:18:41.458Z,954.67
2017-10-03T07:19:41.479Z,954.81
2017-10-03T07:20:41.497Z,954.88
2017-10-03T07:21:41.518Z,954.84
2017-10-03T07:22:41.538Z,954.84
2017-10-03T07:23:41.558Z,954.85
2017-10-03T07:24:41.578Z,954.99
2017-10-03T07:25:41.599Z,955
2017-10-03T07:26:41.619Z,955.09
2017-10-03T07:27:41.640Z,955.11
2017-10-03T07:28:41.660Z,955.15
2017-10-03T07:29:41.686Z,955.2
2017-10-03T07:30:41.698Z,955.26
2017-10-03T07:31:41.720Z,955.22
2017-10-03T07:32:41.739Z,955.16
2017-10-03T07:33:41.762Z,955.04
2017-10-03T07:34:41.777Z,955.1
2017-10-03T07:35:41.800Z,955.21
2017-10-03T07:36:41.817Z,955.2
2017-10-03T07:37:41.842Z,955.15
2017-10-03T07:38:41.862Z,955.14
2017-10-03T07:39:41.880Z,955.05
2017-10-03T07:40:41.897Z,955.06
2017-10-03T07:41:41.922Z,955.08
2017-10-03T07:42:41.936Z,955.17
2017-10-03T07:43:41.956Z,955.22
2017-10-03T07:44:41.981Z,955.28
2017-10-03T07:45:41.996Z,955.36
2017-10-03T07:46:42.020Z,955.47
2017-10-03T07:47:42.043Z,955.47
2017-10-03T07:48:42.108Z,955.55
2017-10-03T07:49:42.077Z,955.67
2017-10-03T07:50:42.097Z,955.75
2017-10-03T07:51:42.117Z,955.83
2017-10-03T07:52:42.154Z,955.91
2017-10-03T07:53:42.155Z,955.96
2017-10-03T07:54:42.180Z,956.05
2017-10-03T07:55:42.199Z,956.08
2017-10-03T07:56:42.214Z,956.17
2017-10-03T07:57:42.239Z,956.19
2017-10-03T07:58:42.254Z,956.25
2017-10-03T07:59:42.275Z,956.28
2017-10-03T08:00:42.296Z,956.31
2017-10-03T08:01:42.313Z,956.35
2017-10-03T08:02:42.333Z,956.29
2017-10-03T08:03:42.360Z,956.3
2017-10-03T08:04:42.375Z,956.26
2017-10-03T08:05:42.448Z,956.25
2017-10-03T08:06:42.415Z,956.26
2017-10-03T08:07:42.440Z,956.3
2017-10-03T08:08:42.456Z,956.28
2017-10-03T08:09:42.524Z,956.45
2017-10-03T08:10:42.495Z,956.52
2017-10-03T08:11:42.514Z,956.63
2017-10-03T08:12:42.535Z,956.6
2017-10-03T08:13:42.554Z,956.65
2017-10-03T08:14:42.576Z,956.69
2017-10-03T08:15:42.599Z,956.71
2017-10-03T08:16:42.616Z,956.71
2017-10-03T08:17:42.638Z,956.78
2017-10-03T08:18:42.659Z,956.82
2017-10-03T08:19:42.676Z,956.78
2017-10-03T08:20:42.696Z,956.83
2017-10-03T08:21:42.715Z,956.9
2017-10-03T08:22:42.736Z,956.84
2017-10-03T08:23:42.755Z,956.85
2017-10-03T08:24:42.776Z,956.89
2017-10-03T08:25:42.794Z,956.95
2017-10-03T08:26:42.815Z,956.98
2017-10-03T08:27:42.839Z,957.01
2017-10-03T08:28:42.859Z,957.07
2017-10-03T08:29:42.874Z,957.08
2017-10-03T08:30:42.894Z,957.07
2017-10-03T08:31:42.916Z,957.01
2017-10-03T08:32:42.934Z,956.97
2017-10-03T08:33:42.958Z,956.91
2017-10-03T08:34:42.973Z,956.91
2017-10-03T08:35:42.994Z,957.05
2017-10-03T08:36:43.014Z,957.13
2017-10-03T08:37:43.038Z,957.2
2017-10-03T08:38:43.110Z,957.25
2017-10-03T08:39:43.073Z,957.33
2017-10-03T08:40:43.095Z,957.43
2017-10-03T08:41:43.114Z,957.51
2017-10-03T08:42:43.134Z,957.69
2017-10-03T08:43:43.154Z,957.7
2017-10-03T08:44:43.173Z,957.68
2017-10-03T08:45:43.193Z,957.66
2017-10-03T08:46:43.413Z,957.74
2017-10-03T08:47:43.232Z,957.81
2017-10-03T08:48:43.252Z,957.88
2017-10-03T08:49:43.271Z,957.96
2017-10-03T08:50:43.291Z,958.03
2017-10-03T08:51:43.310Z,958.15
2017-10-03T08:52:43.338Z,958.17
2017-10-03T08:53:43.692Z,958.26
2017-10-03T08:54:43.830Z,958.32
2017-10-03T08:55:43.572Z,958.32
2017-10-03T08:56:43.522Z,958.33
2017-10-03T08:57:43.449Z,958.24
2017-10-03T08:58:44.096Z,958.27
2017-10-03T08:59:43.587Z,958.24
2017-10-03T09:00:43.815Z,958.2
2017-10-03T09:01:43.615Z,958.18
2017-10-03T09:02:43.695Z,958.18
2017-10-03T09:03:43.632Z,958.15
2017-10-03T09:04:44.448Z,958.08
2017-10-03T09:05:43.713Z,958.11
2017-10-03T09:06:43.687Z,958.08
2017-10-03T09:07:43.672Z,958.09
2017-10-03T09:08:43.676Z,958.08
2017-10-03T09:09:43.687Z,958.2
2017-10-03T09:10:44.165Z,958.25
2017-10-03T09:11:43.759Z,958.34
2017-10-03T09:12:43.837Z,958.34
2017-10-03T09:13:43.802Z,958.43
2017-10-03T09:14:43.761Z,958.44
2017-10-03T09:15:43.795Z,958.49
2017-10-03T09:16:43.794Z,958.58
2017-10-03T09:17:43.818Z,958.76
2017-10-03T09:18:43.834Z,959.02
2017-10-03T09:19:43.856Z,959.15
2017-10-03T09:20:43.883Z,959.24
2017-10-03T09:21:43.889Z,959.3
2017-10-03T09:22:43.909Z,959.38
2017-10-03T09:23:43.927Z,959.22
2017-10-03T09:24:43.947Z,959.22
2017-10-03T09:25:43.966Z,959.14
2017-10-03T09:26:44.041Z,959.18
2017-10-03T09:27:44.039Z,959.15
2017-10-03T09:28:44.021Z,959.25
2017-10-03T09:29:44.043Z,959.25
2017-10-03T09:30:44.123Z,959.22
2017-10-03T09:31:44.082Z,959.19
2017-10-03T09:32:44.097Z,959.12
2017-10-03T09:33:44.116Z,959.11
2017-10-03T09:34:44.135Z,959.14
2017-10-03T09:35:44.153Z,959.1
2017-10-03T09:36:44.294Z,959.03
2017-10-03T09:37:44.191Z,959.01
2017-10-03T09:38:44.210Z,958.97
2017-10-03T09:39:44.323Z,958.89
2017-10-03T09:40:44.251Z,958.82
2017-10-03T09:41:44.349Z,958.89
2017-10-03T09:42:44.370Z,959.12
2017-10-03T09:43:44.382Z,959.24
2017-10-03T09:44:44.418Z,959.21
2017-10-03T09:45:44.427Z,959.12
2017-10-03T09:46:44.507Z,958.97
2017-10-03T09:47:44.497Z,958.82
2017-10-03T09:48:44.476Z,958.7
2017-10-03T09:49:44.532Z,958.77
2017-10-03T09:50:44.517Z,959.02
2017-10-03T09:51:44.529Z,959.27
2017-10-03T09:52:44.588Z,959.42
2017-10-03T09:53:44.590Z,959.43
2017-10-03T09:54:44.687Z,959.41
2017-10-03T09:55:44.815Z,959.51
2017-10-03T09:56:44.594Z,959.52
2017-10-03T09:57:44.697Z,959.59
2017-10-03T09:58:44.658Z,959.63
2017-10-03T09:59:44.720Z,959.76
2017-10-03T10:00:45.290Z,959.74
2017-10-03T10:01:44.784Z,959.74
2017-10-03T10:02:44.782Z,959.65
2017-10-03T10:03:44.780Z,959.67
2017-10-03T10:04:44.748Z,959.68
2017-10-03T10:05:44.828Z,959.7
2017-10-03T10:06:44.792Z,959.7
2017-10-03T10:07:44.865Z,959.7
2017-10-03T10:08:44.893Z,959.67
2017-10-03T10:09:44.931Z,959.67
2017-10-03T10:10:45.009Z,959.78
2017-10-03T10:11:44.895Z,959.75
2017-10-03T10:12:44.857Z,959.78
2017-10-03T10:13:44.874Z,959.72
2017-10-03T10:14:44.894Z,959.78
2017-10-03T10:15:45.068Z,959.72
2017-10-03T10:16:44.960Z,959.7
2017-10-03T10:17:44.954Z,959.76
2017-10-03T10:18:44.972Z,959.76
2017-10-03T10:19:45.013Z,959.87
2017-10-03T10:20:45.011Z,959.82
2017-10-03T10:21:45.029Z,959.89
2017-10-03T10:22:45.050Z,959.9
2017-10-03T10:23:45.067Z,959.9
2017-10-03T10:24:45.089Z,959.85
2017-10-03T10:25:45.108Z,959.85
2017-10-03T10:26:45.126Z,959.81
2017-10-03T10:27:45.148Z,959.89
2017-10-03T10:28:45.165Z,959.85
2017-10-03T10:29:45.188Z,959.72
2017-10-03T10:30:45.254Z,959.73
2017-10-03T10:31:45.227Z,959.82
2017-10-03T10:32:45.242Z,959.93
2017-10-03T10:33:45.261Z,959.99
2017-10-03T10:34:45.287Z,960.01
2017-10-03T10:35:45.301Z,960.01
2017-10-03T10:36:45.322Z,960.05
2017-10-03T10:37:45.345Z,960.09
2017-10-03T10:38:45.369Z,960.1
2017-10-03T10:39:45.394Z,960.15
2017-10-03T10:40:45.404Z,960.21
2017-10-03T10:41:45.419Z,960.24
2017-10-03T10:42:45.445Z,960.25
2017-10-03T10:43:45.460Z,960.23
2017-10-03T10:44:45.479Z,960.16
2017-10-03T10:45:45.554Z,960.17
2017-10-03T10:46:45.519Z,960.23
2017-10-03T10:47:45.542Z,960.2
2017-10-03T10:48:45.561Z,960.1
2017-10-03T10:49:45.580Z,960.1
2017-10-03T10:50:45.604Z,960.05
2017-10-03T10:51:45.624Z,960.08
2017-10-03T10:52:45.683Z,960.15
2017-10-03T10:53:45.663Z,960.23
2017-10-03T10:54:45.684Z,960.26
2017-10-03T10:55:45.704Z,960.26
2017-10-03T10:56:45.726Z,960.27
2017-10-03T10:57:45.746Z,960.29
2017-10-03T10:58:45.768Z,960.54
2017-10-03T10:59:45.789Z,960.57
2017-10-03T11:00:45.810Z,960.34
2017-10-03T11:01:45.834Z,960.36
2017-10-03T11:02:45.856Z,960.34
2017-10-03T11:03:46.253Z,960.29
2017-10-03T11:04:46.069Z,960.32
2017-10-03T11:05:45.923Z,960.28
2017-10-03T11:06:45.968Z,960.31
2017-10-03T11:07:45.990Z,960.29
2017-10-03T11:08:46.010Z,960.31
2017-10-03T11:09:46.154Z,960.34
2017-10-03T11:10:46.032Z,960.33
2017-10-03T11:11:46.062Z,960.35
2017-10-03T11:12:46.246Z,960.33
2017-10-03T11:13:46.149Z,960.32
2017-10-03T11:14:46.123Z,960.33
2017-10-03T11:15:46.151Z,960.26
2017-10-03T11:16:46.176Z,960.29
2017-10-03T11:17:46.192Z,960.32
2017-10-03T11:18:46.219Z,960.38
2017-10-03T11:19:46.239Z,960.31
2017-10-03T11:20:46.353Z,960.37
2017-10-03T11:21:46.329Z,960.31
2017-10-03T11:22:46.312Z,960.37
2017-10-03T11:23:46.323Z,960.42
2017-10-03T11:24:46.411Z,960.43
2017-10-03T11:25:46.463Z,960.41
2017-10-03T11:26:46.490Z,960.32
2017-10-03T11:27:46.459Z,960.36
2017-10-03T11:28:46.432Z,960.38
2017-10-03T11:29:46.504Z,960.32
2017-10-03T11:30:46.481Z,960.26
2017-10-03T11:31:46.509Z,960.33
2017-10-03T11:32:46.527Z,960.43
2017-10-03T11:33:46.560Z,960.44
2017-10-03T11:34:46.565Z,960.45
2017-10-03T11:35:46.700Z,960.47
2017-10-03T11:36:46.631Z,960.42
2017-10-03T11:37:46.715Z,960.44
2017-10-03T11:38:47.024Z,960.36
2017-10-03T11:39:46.686Z,960.26
2017-10-03T11:40:46.862Z,960.29
2017-10-03T11:41:46.782Z,960.19
2017-10-03T11:42:46.765Z,960.33
2017-10-03T11:43:46.763Z,960.26
2017-10-03T11:44:46.852Z,960.33
2017-10-03T11:45:46.809Z,960.31
2017-10-03T11:46:48.453Z,960.22
2017-10-03T11:47:46.852Z,960.29
2017-10-03T11:48:46.942Z,960.33
2017-10-03T11:49:47.029Z,960.32
2017-10-03T11:50:47.244Z,960.3
2017-10-03T11:51:46.962Z,960.28
2017-10-03T11:52:46.975Z,960.34
2017-10-03T11:53:46.990Z,960.35
2017-10-03T11:54:47.422Z,960.54
2017-10-03T11:55:47.243Z,960.4
2017-10-03T11:56:47.137Z,960.37
2017-10-03T11:57:47.137Z,960.39
2017-10-03T11:58:47.094Z,960.43
2017-10-03T11:59:47.228Z,960.28
2017-10-03T12:00:47.141Z,960.38
2017-10-03T12:01:47.163Z,960.43
2017-10-03T12:02:47.252Z,960.41
2017-10-03T12:03:47.204Z,960.47
2017-10-03T12:04:47.229Z,960.56
2017-10-03T12:05:47.247Z,960.5
2017-10-03T12:06:47.657Z,960.96
2017-10-03T12:07:47.696Z,961.01
2017-10-03T12:08:47.347Z,960.69
2017-10-03T12:09:47.345Z,961.02
2017-10-03T12:10:47.429Z,961
2017-10-03T12:11:47.394Z,961.05
2017-10-03T12:12:47.411Z,961.11
2017-10-03T12:13:47.581Z,961.15
2017-10-03T12:14:47.461Z,961.15
2017-10-03T12:15:47.489Z,960.59
2017-10-03T12:16:47.516Z,961.22
2017-10-03T12:17:47.543Z,961.2
2017-10-03T12:18:47.569Z,961.2
2017-10-03T12:19:47.595Z,960.65
2017-10-03T12:20:47.626Z,960.65
2017-10-03T12:21:47.652Z,960.69
2017-10-03T12:22:47.682Z,960.87
2017-10-03T12:23:47.707Z,961.37
2017-10-03T12:24:47.737Z,961.3
2017-10-03T12:25:47.765Z,960.63
2017-10-03T12:26:47.793Z,960.65
2017-10-03T12:27:47.821Z,961.43
2017-10-03T12:28:47.851Z,961.04
2017-10-03T12:29:47.877Z,960.67
2017-10-03T12:30:47.905Z,960.67
2017-10-03T12:31:47.936Z,960.72